createdAt,value
2023-03-20T00:00:08.168Z,954.34
2023-03-20T00:01:08.153Z,954.37
2023-03-20T00:02:08.139Z,954.37
2023-03-20T00:03:08.131Z,954.39
2023-03-20T00:04:08.166Z,954.42
2023-03-20T00:05:08.197Z,954.37
2023-03-20T00:06:08.085Z,954.39
2023-03-20T00:07:08.074Z,954.4
2023-03-20T00:08:08.060Z,954.44
2023-03-20T00:09:08.051Z,954.44
2023-03-20T00:10:08.033Z,954.42
2023-03-20T00:11:08.021Z,954.38
2023-03-20T00:12:08.010Z,954.4
2023-03-20T00:13:08.016Z,954.43
2023-03-20T00:14:07.978Z,954.39
2023-03-20T00:15:07.968Z,954.45
2023-03-20T00:16:07.988Z,954.46
2023-03-20T00:17:07.937Z,954.47
2023-03-20T00:18:07.921Z,954.44
2023-03-20T00:19:07.907Z,954.47
2023-03-20T00:20:07.894Z,954.44
2023-03-20T00:21:07.879Z,954.46
2023-03-20T00:22:07.868Z,954.47
2023-03-20T00:23:07.852Z,954.49
2023-03-20T00:24:07.840Z,954.41
2023-03-20T00:25:07.836Z,954.43
2023-03-20T00:26:07.970Z,954.44
2023-03-20T00:27:07.799Z,954.38
2023-03-20T00:28:07.784Z,954.41
2023-03-20T00:29:07.798Z,954.44
2023-03-20T00:30:07.757Z,954.4
2023-03-20T00:31:07.754Z,954.41
2023-03-20T00:32:07.729Z,954.4
2023-03-20T00:33:07.753Z,954.39
2023-03-20T00:34:07.701Z,954.4
2023-03-20T00:35:07.689Z,954.43
2023-03-20T00:36:07.710Z,954.37
2023-03-20T00:37:07.663Z,954.38
2023-03-20T00:38:07.848Z,954.4
2023-03-20T00:39:07.648Z,954.41
2023-03-20T00:40:07.620Z,954.4
2023-03-20T00:41:07.609Z,954.39
2023-03-20T00:42:07.607Z,954.39
2023-03-20T00:43:07.589Z,954.38
2023-03-20T00:44:07.565Z,954.41
2023-03-20T00:45:07.581Z,954.36
2023-03-20T00:46:07.536Z,954.4
2023-03-20T00:47:07.588Z,954.43
2023-03-20T00:48:07.510Z,954.4
2023-03-20T00:49:07.496Z,954.38
2023-03-20T00:50:07.483Z,954.34
2023-03-20T00:51:07.470Z,954.34
2023-03-20T00:52:07.456Z,954.32
2023-03-20T00:53:07.441Z,954.28
2023-03-20T00:54:07.428Z,954.3
2023-03-20T00:55:07.418Z,954.29
2023-03-20T00:56:07.406Z,954.3
2023-03-20T00:57:07.388Z,954.32
2023-03-20T00:58:07.373Z,954.32
2023-03-20T00:59:07.358Z,954.31
2023-03-20T01:00:07.345Z,954.29
2023-03-20T01:01:07.460Z,954.31
2023-03-20T01:02:07.404Z,954.33
2023-03-20T01:03:07.308Z,954.29
2023-03-20T01:04:07.290Z,954.29
2023-03-20T01:05:07.280Z,954.28
2023-03-20T01:06:07.264Z,954.29
2023-03-20T01:07:07.251Z,954.27
2023-03-20T01:08:07.235Z,954.26
2023-03-20T01:09:07.227Z,954.28
2023-03-20T01:10:07.210Z,954.25
2023-03-20T01:11:07.197Z,954.24
2023-03-20T01:12:07.179Z,954.28
2023-03-20T01:13:07.168Z,954.25
2023-03-20T01:14:07.151Z,954.23
2023-03-20T01:15:07.136Z,954.2
2023-03-20T01:16:07.150Z,954.24
2023-03-20T01:17:07.133Z,954.25
2023-03-20T01:18:07.099Z,954.2
2023-03-20T01:19:07.083Z,954.22
2023-03-20T01:20:07.070Z,954.26
2023-03-20T01:21:07.054Z,954.22
2023-03-20T01:22:07.042Z,954.17
2023-03-20T01:23:07.026Z,954.18
2023-03-20T01:24:07.014Z,954.18
2023-03-20T01:25:07.000Z,954.16
2023-03-20T01:26:07.016Z,954.19
2023-03-20T01:27:06.972Z,954.19
2023-03-20T01:28:06.959Z,954.15
2023-03-20T01:29:06.941Z,954.18
2023-03-20T01:30:06.930Z,954.23
2023-03-20T01:31:06.916Z,954.16
2023-03-20T01:32:06.934Z,954.19
2023-03-20T01:33:06.951Z,954.18
2023-03-20T01:34:06.889Z,954.21
2023-03-20T01:35:06.860Z,954.19
2023-03-20T01:36:06.895Z,954.15
2023-03-20T01:37:06.834Z,954.2
2023-03-20T01:38:06.835Z,954.19
2023-03-20T01:39:06.808Z,954.17
2023-03-20T01:40:06.791Z,954.23
2023-03-20T01:41:06.778Z,954.22
2023-03-20T01:42:06.765Z,954.22
2023-03-20T01:43:06.750Z,954.22
2023-03-20T01:44:06.743Z,954.24
2023-03-20T01:45:06.724Z,954.24
2023-03-20T01:46:06.766Z,954.22
2023-03-20T01:47:06.694Z,954.21
2023-03-20T01:48:06.682Z,954.22
2023-03-20T01:49:06.692Z,954.23
2023-03-20T01:50:06.656Z,954.3
2023-03-20T01:51:06.644Z,954.24
2023-03-20T01:52:06.629Z,954.22
2023-03-20T01:53:06.617Z,954.28
2023-03-20T01:54:06.612Z,954.29
2023-03-20T01:55:06.589Z,954.28
2023-03-20T01:56:06.572Z,954.27
2023-03-20T01:57:06.555Z,954.31
2023-03-20T01:58:06.555Z,954.32
2023-03-20T01:59:06.529Z,954.32
2023-03-20T02:00:06.516Z,954.36
2023-03-20T02:01:06.565Z,954.35
2023-03-20T02:02:06.488Z,954.33
2023-03-20T02:03:06.472Z,954.33
2023-03-20T02:04:06.460Z,954.31
2023-03-20T02:05:06.757Z,954.38
2023-03-20T02:06:06.431Z,954.34
2023-03-20T02:07:06.424Z,954.36
2023-03-20T02:08:06.402Z,954.33
2023-03-20T02:09:06.389Z,954.36
2023-03-20T02:10:06.373Z,954.35
2023-03-20T02:11:06.361Z,954.37
2023-03-20T02:12:06.345Z,954.35
2023-03-20T02:13:06.332Z,954.37
2023-03-20T02:14:06.317Z,954.39
2023-03-20T02:15:06.309Z,954.4
2023-03-20T02:16:06.291Z,954.38
2023-03-20T02:17:06.310Z,954.44
2023-03-20T02:18:06.259Z,954.37
2023-03-20T02:19:06.244Z,954.42
2023-03-20T02:20:06.229Z,954.39
2023-03-20T02:21:06.239Z,954.41
2023-03-20T02:22:06.200Z,954.41
2023-03-20T02:23:06.189Z,954.4
2023-03-20T02:24:06.170Z,954.4
2023-03-20T02:25:06.159Z,954.39
2023-03-20T02:26:06.143Z,954.44
2023-03-20T02:27:06.131Z,954.41
2023-03-20T02:28:06.115Z,954.4
2023-03-20T02:29:06.099Z,954.47
2023-03-20T02:30:06.096Z,954.43
2023-03-20T02:31:06.184Z,954.42
2023-03-20T02:32:06.053Z,954.4
2023-03-20T02:33:06.106Z,954.39
2023-03-20T02:34:06.026Z,954.41
2023-03-20T02:35:06.013Z,954.4
2023-03-20T02:36:06.064Z,954.36
2023-03-20T02:37:06.014Z,954.36
2023-03-20T02:38:05.968Z,954.33
2023-03-20T02:39:05.952Z,954.37
2023-03-20T02:40:05.944Z,954.36
2023-03-20T02:41:05.930Z,954.33
2023-03-20T02:42:05.908Z,954.31
2023-03-20T02:43:05.896Z,954.38
2023-03-20T02:44:05.897Z,954.33
2023-03-20T02:45:05.868Z,954.31
2023-03-20T02:46:05.871Z,954.35
2023-03-20T02:47:05.839Z,954.35
2023-03-20T02:48:05.826Z,954.37
2023-03-20T02:49:05.810Z,954.38
2023-03-20T02:50:05.810Z,954.39
2023-03-20T02:51:05.781Z,954.41
2023-03-20T02:52:05.765Z,954.39
2023-03-20T02:53:05.782Z,954.41
2023-03-20T02:54:05.742Z,954.41
2023-03-20T02:55:05.723Z,954.42
2023-03-20T02:56:05.705Z,954.39
2023-03-20T02:57:05.690Z,954.39
2023-03-20T02:58:05.677Z,954.42
2023-03-20T02:59:05.660Z,954.36
2023-03-20T03:00:05.650Z,954.41
2023-03-20T03:01:05.633Z,954.4
2023-03-20T03:02:05.619Z,954.4
2023-03-20T03:03:05.661Z,954.36
2023-03-20T03:04:05.590Z,954.39
2023-03-20T03:05:05.585Z,954.35
2023-03-20T03:06:05.561Z,954.37
2023-03-20T03:07:05.555Z,954.36
2023-03-20T03:08:05.538Z,954.4
2023-03-20T03:09:05.549Z,954.38
2023-03-20T03:10:05.548Z,954.36
2023-03-20T03:11:05.487Z,954.39
2023-03-20T03:12:05.474Z,954.43
2023-03-20T03:13:05.480Z,954.41
2023-03-20T03:14:05.452Z,954.38
2023-03-20T03:15:05.429Z,954.41
2023-03-20T03:16:05.464Z,954.44
2023-03-20T03:17:05.400Z,954.41
2023-03-20T03:18:05.399Z,954.4
2023-03-20T03:19:05.377Z,954.4
2023-03-20T03:20:05.357Z,954.42
2023-03-20T03:21:05.344Z,954.46
2023-03-20T03:22:05.327Z,954.4
2023-03-20T03:23:05.349Z,954.39
2023-03-20T03:24:05.336Z,954.43
2023-03-20T03:25:05.349Z,954.44
2023-03-20T03:26:05.308Z,954.45
2023-03-20T03:27:05.287Z,954.42
2023-03-20T03:28:05.276Z,954.43
2023-03-20T03:29:05.260Z,954.42
2023-03-20T03:30:05.251Z,954.41
2023-03-20T03:31:05.384Z,954.39
2023-03-20T03:32:05.221Z,954.37
2023-03-20T03:33:05.232Z,954.39
2023-03-20T03:34:05.191Z,954.39
2023-03-20T03:35:05.169Z,954.41
2023-03-20T03:36:05.164Z,954.4
2023-03-20T03:37:05.140Z,954.35
2023-03-20T03:38:05.127Z,954.4
2023-03-20T03:39:05.114Z,954.35
2023-03-20T03:40:05.115Z,954.34
2023-03-20T03:41:05.106Z,954.39
2023-03-20T03:42:05.067Z,954.35
2023-03-20T03:43:05.061Z,954.39
2023-03-20T03:44:05.040Z,954.37
2023-03-20T03:45:05.024Z,954.39
2023-03-20T03:46:05.008Z,954.37
2023-03-20T03:47:04.994Z,954.38
2023-03-20T03:48:04.982Z,954.36
2023-03-20T03:49:04.964Z,954.36
2023-03-20T03:50:04.948Z,954.33
2023-03-20T03:51:04.936Z,954.34
2023-03-20T03:52:04.919Z,954.35
2023-03-20T03:53:04.903Z,954.37
2023-03-20T03:54:04.885Z,954.34
2023-03-20T03:55:04.899Z,954.42
2023-03-20T03:56:04.904Z,954.36
2023-03-20T03:57:04.871Z,954.36
2023-03-20T03:58:04.829Z,954.35
2023-03-20T03:59:04.816Z,954.35
2023-03-20T04:00:04.813Z,954.35
2023-03-20T04:01:04.786Z,954.35
2023-03-20T04:02:04.796Z,954.35
2023-03-20T04:03:04.762Z,954.32
2023-03-20T04:04:05.024Z,954.33
2023-03-20T04:05:04.761Z,954.34
2023-03-20T04:06:04.733Z,954.34
2023-03-20T04:07:04.701Z,954.32
2023-03-20T04:08:04.683Z,954.32
2023-03-20T04:09:04.670Z,954.3
2023-03-20T04:10:04.659Z,954.32
2023-03-20T04:11:04.642Z,954.31
2023-03-20T04:12:04.624Z,954.29
2023-03-20T04:13:04.637Z,954.36
2023-03-20T04:14:04.606Z,954.34
2023-03-20T04:15:04.581Z,954.34
2023-03-20T04:16:04.589Z,954.32
2023-03-20T04:17:04.553Z,954.31
2023-03-20T04:18:04.535Z,954.32
2023-03-20T04:19:04.522Z,954.34
2023-03-20T04:20:04.507Z,954.32
2023-03-20T04:21:04.493Z,954.32
2023-03-20T04:22:04.475Z,954.36
2023-03-20T04:23:04.465Z,954.38
2023-03-20T04:24:04.448Z,954.37
2023-03-20T04:25:04.432Z,954.41
2023-03-20T04:26:04.432Z,954.44
2023-03-20T04:27:04.410Z,954.41
2023-03-20T04:28:04.391Z,954.4
2023-03-20T04:29:04.398Z,954.43
2023-03-20T04:46:00.079Z,954.45
2023-03-20T04:46:59.982Z,954.5
2023-03-20T04:47:59.969Z,954.5
2023-03-20T04:48:59.945Z,954.52
2023-03-20T04:49:59.930Z,954.52
2023-03-20T04:50:59.912Z,954.51
2023-03-20T04:51:59.898Z,954.53
2023-03-20T04:52:59.879Z,954.54
2023-03-20T04:53:59.865Z,954.55
2023-03-20T04:54:59.846Z,954.58
2023-03-20T04:56:01.892Z,954.57
2023-03-20T04:56:59.815Z,954.6
2023-03-20T04:57:59.799Z,954.58
2023-03-20T04:58:59.797Z,954.6
2023-03-20T04:59:59.779Z,954.61
2023-03-20T05:00:59.755Z,954.62
2023-03-20T05:01:59.771Z,954.65
2023-03-20T05:02:59.720Z,954.64
2023-03-20T05:03:59.745Z,954.64
2023-03-20T05:04:59.692Z,954.67
2023-03-20T05:05:59.676Z,954.68
2023-03-20T05:06:59.659Z,954.65
2023-03-20T05:07:59.645Z,954.7
2023-03-20T05:08:59.630Z,954.72
2023-03-20T05:09:59.615Z,954.72
2023-03-20T05:10:59.596Z,954.74
2023-03-20T05:11:59.583Z,954.74
2023-03-20T05:12:59.573Z,954.73
2023-03-20T05:13:59.556Z,954.76
2023-03-20T05:14:59.537Z,954.8
2023-03-20T05:15:59.523Z,954.82
2023-03-20T05:16:59.581Z,954.81
2023-03-20T05:17:59.519Z,954.79
2023-03-20T05:18:59.477Z,954.75
2023-03-20T05:19:59.465Z,954.76
2023-03-20T05:20:59.449Z,954.81
2023-03-20T05:21:59.438Z,954.81
2023-03-20T05:22:59.423Z,954.78
2023-03-20T05:23:59.458Z,954.81
2023-03-20T05:24:59.442Z,954.8
2023-03-20T05:25:59.441Z,954.79
2023-03-20T05:26:59.414Z,954.83
2023-03-20T05:27:59.399Z,954.85
2023-03-20T05:28:59.383Z,954.86
2023-03-20T05:29:59.369Z,954.85
2023-03-20T05:30:59.422Z,954.85
2023-03-20T05:31:59.339Z,954.88
2023-03-20T05:32:59.372Z,954.89
2023-03-20T05:33:59.338Z,954.89
2023-03-20T05:34:59.307Z,954.93
2023-03-20T05:35:59.344Z,954.91
2023-03-20T05:36:59.270Z,954.95
2023-03-20T05:37:59.278Z,954.92
2023-03-20T05:38:59.255Z,954.96
2023-03-20T05:39:59.225Z,954.96
2023-03-20T05:40:59.212Z,954.92
2023-03-20T05:41:59.195Z,954.95
2023-03-20T05:42:59.181Z,954.94
2023-03-20T05:43:59.165Z,954.96
2023-03-20T05:44:59.154Z,955.01
2023-03-20T05:45:59.245Z,955.01
2023-03-20T05:46:59.122Z,955.01
2023-03-20T05:47:59.108Z,955.02
2023-03-20T05:48:59.094Z,955.02
2023-03-20T05:49:59.104Z,954.99
2023-03-20T05:50:59.069Z,955.03
2023-03-20T05:51:59.053Z,955
2023-03-20T05:52:59.038Z,955.04
2023-03-20T05:53:59.021Z,955.03
2023-03-20T05:54:59.015Z,955
2023-03-20T05:55:59.006Z,955
2023-03-20T05:56:59.287Z,955.04
2023-03-20T05:57:58.992Z,955.04
2023-03-20T05:58:58.956Z,955.02
2023-03-20T05:59:58.939Z,955.05
2023-03-20T06:00:58.952Z,955.07
2023-03-20T06:01:58.912Z,955.04
2023-03-20T06:02:58.959Z,955.03
2023-03-20T06:03:58.921Z,955.01
2023-03-20T06:04:58.884Z,955.03
2023-03-20T06:05:58.880Z,955.03
2023-03-20T06:06:58.846Z,955.05
2023-03-20T06:07:58.830Z,955.02
2023-03-20T06:08:58.814Z,955.04
2023-03-20T06:09:58.812Z,955.02
2023-03-20T06:10:58.787Z,955.05
2023-03-20T06:11:58.771Z,955.01
2023-03-20T06:12:58.758Z,955
2023-03-20T06:13:58.752Z,955.06
2023-03-20T06:14:58.732Z,955.03
2023-03-20T06:15:58.742Z,955.03
2023-03-20T06:16:58.702Z,955.07
2023-03-20T06:17:58.686Z,955.08
2023-03-20T06:18:58.676Z,955.06
2023-03-20T06:19:58.658Z,955.12
2023-03-20T06:20:58.646Z,955.11
2023-03-20T06:21:58.658Z,955.12
2023-03-20T06:22:58.617Z,955.08
2023-03-20T06:23:58.601Z,955.13
2023-03-20T06:24:58.590Z,955.14
2023-03-20T06:25:58.587Z,955.14
2023-03-20T06:26:58.561Z,955.12
2023-03-20T06:27:58.547Z,955.13
2023-03-20T06:28:58.530Z,955.17
2023-03-20T06:29:58.534Z,955.15
2023-03-20T06:30:58.539Z,955.17
2023-03-20T06:31:58.494Z,955.19
2023-03-20T06:32:58.533Z,955.16
2023-03-20T06:33:58.461Z,955.17
2023-03-20T06:34:58.449Z,955.14
2023-03-20T06:35:58.491Z,955.16
2023-03-20T06:36:58.430Z,955.14
2023-03-20T06:37:58.428Z,955.18
2023-03-20T06:38:58.390Z,955.19
2023-03-20T06:39:58.377Z,955.11
2023-03-20T06:40:58.370Z,955.11
2023-03-20T06:41:58.366Z,955.13
2023-03-20T06:42:58.333Z,955.15
2023-03-20T06:43:58.321Z,955.12
2023-03-20T06:44:58.313Z,955.15
2023-03-20T06:45:58.300Z,955.17
2023-03-20T06:46:58.343Z,955.16
2023-03-20T06:47:58.272Z,955.18
2023-03-20T06:48:58.251Z,955.18
2023-03-20T06:49:58.239Z,955.17
2023-03-20T06:50:58.234Z,955.17
2023-03-20T06:51:58.211Z,955.17
2023-03-20T06:52:58.198Z,955.17
2023-03-20T06:53:58.206Z,955.18
2023-03-20T06:54:58.170Z,955.22
2023-03-20T06:55:58.183Z,955.19
2023-03-20T06:56:58.141Z,955.19
2023-03-20T06:57:58.128Z,955.26
2023-03-20T06:58:58.115Z,955.18
2023-03-20T06:59:58.102Z,955.21
2023-03-20T07:00:58.087Z,955.18
2023-03-20T07:01:58.078Z,955.17
2023-03-20T07:02:59.002Z,955.19
2023-03-20T07:03:58.050Z,955.21
2023-03-20T07:04:58.109Z,955.17
2023-03-20T07:05:58.024Z,955.17
2023-03-20T07:06:58.011Z,955.19
2023-03-20T07:07:58.000Z,955.18
2023-03-20T07:08:57.986Z,955.16
2023-03-20T07:09:58.002Z,955.17
2023-03-20T07:10:57.961Z,955.21
2023-03-20T07:11:57.947Z,955.19
2023-03-20T07:12:57.934Z,955.18
2023-03-20T07:13:57.921Z,955.19
2023-03-20T07:14:57.917Z,955.19
2023-03-20T07:16:04.383Z,955.2
2023-03-20T07:16:58.030Z,955.19
2023-03-20T07:17:57.869Z,955.22
2023-03-20T07:18:57.855Z,955.2
2023-03-20T07:19:57.845Z,955.17
2023-03-20T07:20:57.831Z,955.2
2023-03-20T07:21:57.815Z,955.18
2023-03-20T07:22:57.805Z,955.19
2023-03-20T07:23:57.791Z,955.2
2023-03-20T07:24:57.779Z,955.22
2023-03-20T07:25:57.791Z,955.22
2023-03-20T07:26:57.756Z,955.2
2023-03-20T07:27:57.739Z,955.22
2023-03-20T07:28:57.726Z,955.2
2023-03-20T07:29:57.712Z,955.26
2023-03-20T07:30:57.706Z,955.31
2023-03-20T07:31:57.687Z,955.32
2023-03-20T07:32:57.693Z,955.29
2023-03-20T07:33:57.668Z,955.3
2023-03-20T07:34:57.652Z,955.31
2023-03-20T07:35:57.743Z,955.28
2023-03-20T07:36:57.624Z,955.29
2023-03-20T07:37:58.287Z,955.33
2023-03-20T07:38:57.601Z,955.3
2023-03-20T07:39:57.586Z,955.32
2023-03-20T07:40:57.572Z,955.31
2023-03-20T07:41:57.583Z,955.3
2023-03-20T07:42:57.546Z,955.35
2023-03-20T07:43:57.533Z,955.35
2023-03-20T07:44:57.521Z,955.33
2023-03-20T07:45:57.531Z,955.33
2023-03-20T07:46:57.496Z,955.32
2023-03-20T07:47:57.540Z,955.35
2023-03-20T07:48:57.476Z,955.34
2023-03-20T07:49:57.461Z,955.36
2023-03-20T07:50:57.454Z,955.37
2023-03-20T07:51:57.432Z,955.38
2023-03-20T07:52:57.421Z,955.39
2023-03-20T07:53:57.412Z,955.35
2023-03-20T07:54:57.402Z,955.38
2023-03-20T07:55:57.391Z,955.39
2023-03-20T07:56:57.373Z,955.37
2023-03-20T07:57:57.406Z,955.36
2023-03-20T07:58:57.351Z,955.35
2023-03-20T07:59:57.338Z,955.38
2023-03-20T08:00:57.324Z,955.33
2023-03-20T08:01:57.368Z,955.36
2023-03-20T08:02:57.486Z,955.31
2023-03-20T08:03:57.445Z,955.34
2023-03-20T08:04:57.278Z,955.39
2023-03-20T08:05:57.396Z,955.33
2023-03-20T08:06:57.251Z,955.36
2023-03-20T08:07:57.240Z,955.34
2023-03-20T08:08:57.229Z,955.37
2023-03-20T08:09:57.215Z,955.33
2023-03-20T08:10:57.205Z,955.32
2023-03-20T08:11:57.197Z,955.34
2023-03-20T08:12:57.182Z,955.33
2023-03-20T08:13:57.200Z,955.33
2023-03-20T08:14:57.163Z,955.34
2023-03-20T08:15:57.198Z,955.37
2023-03-20T08:17:12.636Z,955.29
2023-03-20T08:17:57.130Z,955.28
2023-03-20T08:18:57.126Z,955.29
2023-03-20T08:19:57.106Z,955.29
2023-03-20T08:20:57.095Z,955.35
2023-03-20T08:21:57.085Z,955.32
2023-03-20T08:22:57.072Z,955.36
2023-03-20T08:23:57.067Z,955.35
2023-03-20T08:24:57.053Z,955.32
2023-03-20T08:25:57.041Z,955.3
2023-03-20T08:26:57.029Z,955.33
2023-03-20T08:27:57.021Z,955.31
2023-03-20T08:28:57.008Z,955.33
2023-03-20T08:29:57.023Z,955.36
2023-03-20T08:30:57.087Z,955.31
2023-03-20T08:31:56.976Z,955.29
2023-03-20T08:32:56.983Z,955.31
2023-03-20T08:33:56.956Z,955.29
2023-03-20T08:34:56.943Z,955.32
2023-03-20T08:35:57.049Z,955.27
2023-03-20T08:36:56.932Z,955.2
2023-03-20T08:37:56.922Z,955.25
2023-03-20T08:38:56.908Z,955.29
2023-03-20T08:39:56.958Z,955.29
2023-03-20T08:40:56.883Z,955.29
2023-03-20T08:41:57.947Z,955.31
2023-03-20T08:42:56.868Z,955.31
2023-03-20T08:43:56.854Z,955.34
2023-03-20T08:44:56.839Z,955.35
2023-03-20T08:45:56.873Z,955.41
2023-03-20T08:46:56.819Z,955.4
2023-03-20T08:47:56.811Z,955.38
2023-03-20T08:48:56.796Z,955.39
2023-03-20T08:49:56.798Z,955.41
2023-03-20T08:50:56.776Z,955.41
2023-03-20T08:51:56.765Z,955.42
2023-03-20T08:52:56.754Z,955.48
2023-03-20T08:53:56.744Z,955.45
2023-03-20T08:54:56.732Z,955.48
2023-03-20T08:55:56.723Z,955.51
2023-03-20T08:56:56.709Z,955.51
2023-03-20T08:57:56.716Z,955.51
2023-03-20T08:58:56.724Z,955.52
2023-03-20T08:59:56.680Z,955.5
2023-03-20T09:00:56.673Z,955.47
2023-03-20T09:01:56.776Z,955.52
2023-03-20T09:02:56.679Z,955.5
2023-03-20T09:03:56.633Z,955.49
2023-03-20T09:04:56.629Z,955.48
2023-03-20T09:05:56.612Z,955.49
2023-03-20T09:06:56.614Z,955.52
2023-03-20T09:07:56.592Z,955.5
2023-03-20T09:08:56.579Z,955.52
2023-03-20T09:09:56.580Z,955.53
2023-03-20T09:10:56.556Z,955.54
2023-03-20T09:11:56.546Z,955.55
2023-03-20T09:12:56.534Z,955.55
2023-03-20T09:13:56.529Z,955.57
2023-03-20T09:14:56.512Z,955.55
2023-03-20T09:15:56.580Z,955.58
2023-03-20T09:16:56.493Z,955.58
2023-03-20T09:17:56.502Z,955.56
2023-03-20T09:18:56.471Z,955.57
2023-03-20T09:19:56.463Z,955.52
2023-03-20T09:20:56.547Z,955.56
2023-03-20T09:21:56.434Z,955.54
2023-03-20T09:22:56.425Z,955.56
2023-03-20T09:23:56.414Z,955.55
2023-03-20T09:24:56.426Z,955.59
2023-03-20T09:25:56.403Z,955.59
2023-03-20T09:26:56.381Z,955.55
2023-03-20T09:27:56.371Z,955.58
2023-03-20T09:28:56.381Z,955.63
2023-03-20T09:29:56.347Z,955.54
2023-03-20T09:30:56.374Z,955.6
2023-03-20T09:31:56.327Z,955.57
2023-03-20T09:32:56.339Z,955.6
2023-03-20T09:33:56.327Z,955.62
2023-03-20T09:34:56.295Z,955.63
2023-03-20T09:35:56.323Z,955.64
2023-03-20T09:36:56.286Z,955.63
2023-03-20T09:37:56.262Z,955.61
2023-03-20T09:38:56.254Z,955.66
2023-03-20T09:39:56.243Z,955.61
2023-03-20T09:40:56.243Z,955.63
2023-03-20T09:41:57.762Z,955.63
2023-03-20T09:42:56.211Z,955.61
2023-03-20T09:43:56.206Z,955.67
2023-03-20T09:44:56.188Z,955.68
2023-03-20T09:45:56.178Z,955.65
2023-03-20T09:47:05.612Z,955.63
2023-03-20T09:47:56.157Z,955.64
2023-03-20T09:48:56.148Z,955.67
2023-03-20T09:49:56.297Z,955.62
2023-03-20T09:50:56.128Z,955.6
2023-03-20T09:51:56.137Z,955.64
2023-03-20T09:52:56.255Z,955.61
2023-03-20T09:53:56.302Z,955.65
2023-03-20T09:54:56.084Z,955.6
2023-03-20T09:55:56.176Z,955.63
2023-03-20T09:56:56.063Z,955.64
2023-03-20T09:57:56.057Z,955.61
2023-03-20T09:58:56.043Z,955.62
2023-03-20T09:59:56.035Z,955.64
2023-03-20T10:00:56.023Z,955.63
2023-03-20T10:01:56.050Z,955.65
2023-03-20T10:02:56.004Z,955.61
2023-03-20T10:03:55.995Z,955.65
2023-03-20T10:04:56.093Z,955.6
2023-03-20T10:05:55.999Z,955.6
2023-03-20T10:06:55.966Z,955.62
2023-03-20T10:07:55.959Z,955.58
2023-03-20T10:08:55.946Z,955.63
2023-03-20T10:09:55.938Z,955.67
2023-03-20T10:10:55.926Z,955.69
2023-03-20T10:11:55.917Z,955.67
2023-03-20T10:12:55.905Z,955.7
2023-03-20T10:13:55.907Z,955.66
2023-03-20T10:14:55.888Z,955.66
2023-03-20T10:15:55.950Z,955.66
2023-03-20T10:16:55.868Z,955.66
2023-03-20T10:17:55.860Z,955.69
2023-03-20T10:18:55.847Z,955.74
2023-03-20T10:19:55.842Z,955.71
2023-03-20T10:20:55.829Z,955.7
2023-03-20T10:21:55.880Z,955.77
2023-03-20T10:22:55.827Z,955.8
2023-03-20T10:23:55.801Z,955.75
2023-03-20T10:24:55.793Z,955.8
2023-03-20T10:25:55.781Z,955.8
2023-03-20T10:26:55.771Z,955.76
2023-03-20T10:27:55.764Z,955.76
2023-03-20T10:28:55.751Z,955.71
2023-03-20T10:29:55.755Z,955.73
2023-03-20T10:30:55.742Z,955.73
2023-03-20T10:31:55.874Z,955.75
2023-03-20T10:32:55.784Z,955.76
2023-03-20T10:33:55.709Z,955.71
2023-03-20T10:34:55.694Z,955.77
2023-03-20T10:35:55.736Z,955.78
2023-03-20T10:36:55.676Z,955.73
2023-03-20T10:37:55.692Z,955.74
2023-03-20T10:38:55.657Z,955.79
2023-03-20T10:39:55.648Z,955.77
2023-03-20T10:40:55.636Z,955.74
2023-03-20T10:41:55.630Z,955.74
2023-03-20T10:42:55.616Z,955.75
2023-03-20T10:43:55.609Z,955.7
2023-03-20T10:44:55.600Z,955.72
2023-03-20T10:45:55.588Z,955.74
2023-03-20T10:46:55.614Z,955.72
2023-03-20T10:47:55.610Z,955.75
2023-03-20T10:48:55.561Z,955.75
2023-03-20T10:49:55.548Z,955.78
2023-03-20T10:50:55.539Z,955.72
2023-03-20T10:51:55.528Z,955.74
2023-03-20T10:52:55.520Z,955.74
2023-03-20T10:53:55.540Z,955.79
2023-03-20T10:54:55.498Z,955.74
2023-03-20T10:55:55.486Z,955.76
2023-03-20T10:56:55.476Z,955.74
2023-03-20T10:57:55.469Z,955.7
2023-03-20T10:58:55.458Z,955.71
2023-03-20T10:59:55.446Z,955.67
2023-03-20T11:00:55.472Z,955.7
2023-03-20T11:01:55.426Z,955.69
2023-03-20T11:02:55.416Z,955.64
2023-03-20T11:03:55.435Z,955.64
2023-03-20T11:04:55.397Z,955.65
2023-03-20T11:06:08.430Z,955.65
2023-03-20T11:06:55.398Z,955.65
2023-03-20T11:07:55.362Z,955.6
2023-03-20T11:08:55.355Z,955.62
2023-03-20T11:09:55.366Z,955.57
2023-03-20T11:10:57.250Z,955.54
2023-03-20T11:11:55.324Z,955.54
2023-03-20T11:12:55.313Z,955.57
2023-03-20T11:13:55.301Z,955.49
2023-03-20T11:14:55.292Z,955.53
2023-03-20T11:15:55.278Z,955.54
2023-03-20T11:16:55.320Z,955.5
2023-03-20T11:17:55.262Z,955.49
2023-03-20T11:18:55.285Z,955.48
2023-03-20T11:19:55.236Z,955.48
2023-03-20T11:20:55.228Z,955.49
2023-03-20T11:21:55.219Z,955.47
2023-03-20T11:22:55.207Z,955.47
2023-03-20T11:23:55.209Z,955.43
2023-03-20T11:24:55.194Z,955.46
2023-03-20T11:25:55.946Z,955.44
2023-03-20T11:26:55.905Z,955.45
2023-03-20T11:27:55.892Z,955.47
2023-03-20T11:28:56.238Z,955.48
2023-03-20T11:29:55.875Z,955.45
2023-03-20T11:31:04.299Z,955.46
2023-03-20T11:31:55.873Z,955.45
2023-03-20T11:32:55.890Z,955.4
2023-03-20T11:33:55.834Z,955.41
2023-03-20T11:34:55.865Z,955.45
2023-03-20T11:35:55.909Z,955.4
2023-03-20T11:37:08.498Z,955.44
2023-03-20T11:37:55.790Z,955.41
2023-03-20T11:38:55.776Z,955.39
2023-03-20T11:39:55.766Z,955.33
2023-03-20T11:40:55.754Z,955.35
2023-03-20T11:41:55.772Z,955.34
2023-03-20T11:42:55.749Z,955.34
2023-03-20T11:43:55.725Z,955.38
2023-03-20T11:44:55.712Z,955.31
2023-03-20T11:45:55.743Z,955.38
2023-03-20T11:46:55.694Z,955.35
2023-03-20T11:47:55.682Z,955.32
2023-03-20T11:48:55.683Z,955.32
2023-03-20T11:49:55.663Z,955.31
2023-03-20T11:50:55.654Z,955.35
2023-03-20T11:51:55.643Z,955.28
2023-03-20T11:52:55.633Z,955.34
2023-03-20T11:53:55.624Z,955.31
2023-03-20T11:54:55.618Z,955.29
2023-03-20T11:55:55.609Z,955.32
2023-03-20T11:56:55.596Z,955.31
2023-03-20T11:57:55.610Z,955.31
2023-03-20T11:58:55.574Z,955.33
2023-03-20T11:59:55.569Z,955.29
2023-03-20T12:00:55.558Z,955.31
2023-03-20T12:01:55.549Z,955.29
2023-03-20T12:02:55.658Z,955.22
2023-03-20T12:03:55.722Z,955.27
2023-03-20T12:04:55.519Z,955.31
2023-03-20T12:05:55.516Z,955.28
2023-03-20T12:06:55.500Z,955.29
2023-03-20T12:07:55.492Z,955.29
2023-03-20T12:08:55.580Z,955.25
2023-03-20T12:09:55.472Z,955.32
2023-03-20T12:10:55.459Z,955.33
2023-03-20T12:11:55.464Z,955.3
2023-03-20T12:12:55.442Z,955.29
2023-03-20T12:13:55.459Z,955.27
2023-03-20T12:14:55.420Z,955.29
2023-03-20T12:15:55.427Z,955.31
2023-03-20T12:16:55.401Z,955.28
2023-03-20T12:17:55.406Z,955.25
2023-03-20T12:18:55.383Z,955.25
2023-03-20T12:19:55.371Z,955.23
2023-03-20T12:20:55.366Z,955.22
2023-03-20T12:21:55.366Z,955.2
2023-03-20T12:22:55.348Z,955.16
2023-03-20T12:23:55.332Z,955.15
2023-03-20T12:24:55.335Z,955.11
2023-03-20T12:25:55.349Z,955.11
2023-03-20T12:26:55.303Z,955.14
2023-03-20T12:27:55.292Z,955.12
2023-03-20T12:28:55.300Z,955.11
2023-03-20T12:29:55.308Z,955.18
2023-03-20T12:30:55.275Z,955.13
2023-03-20T12:31:55.249Z,955.17
2023-03-20T12:32:55.262Z,955.21
2023-03-20T12:33:55.243Z,955.18
2023-03-20T12:34:55.216Z,955.22
2023-03-20T12:35:55.227Z,955.22
2023-03-20T12:36:55.199Z,955.21
2023-03-20T12:37:55.184Z,955.21
2023-03-20T12:38:55.185Z,955.2
2023-03-20T12:39:55.162Z,955.2
2023-03-20T12:40:55.153Z,955.18
2023-03-20T12:41:55.150Z,955.23
2023-03-20T12:42:55.133Z,955.22
2023-03-20T12:43:55.122Z,955.14
2023-03-20T12:44:55.121Z,955.16
2023-03-20T12:45:55.121Z,955.17
2023-03-20T12:46:55.119Z,955.16